createdAt,value
2018-12-14T00:00:33.800Z,61.60
2018-12-14T00:02:59.929Z,83.63
2018-12-14T00:05:26.070Z,65.90
2018-12-14T00:07:52.246Z,83.80
2018-12-14T00:10:18.377Z,81.83
2018-12-14T00:12:44.513Z,67.67
2018-12-14T00:15:10.681Z,50.60
2018-12-14T00:17:36.837Z,40.20
2018-12-14T00:20:04.635Z,31.80
2018-12-14T00:22:30.797Z,32.50
2018-12-14T00:24:56.936Z,30.60
2018-12-14T00:27:23.415Z,23.77
2018-12-14T00:29:49.829Z,24.93
2018-12-14T00:32:16.518Z,28.30
2018-12-14T00:34:42.664Z,33.53
2018-12-14T00:37:08.844Z,41.23
2018-12-14T00:39:34.984Z,38.57
2018-12-14T00:42:01.145Z,35.43
2018-12-14T00:44:27.316Z,40.63
2018-12-14T00:46:53.465Z,50.57
2018-12-14T00:49:19.607Z,45.40
2018-12-14T00:51:45.833Z,53.07
2018-12-14T00:54:11.976Z,42.60
2018-12-14T00:56:38.109Z,36.07
2018-12-14T00:59:04.290Z,43.80
2018-12-14T01:01:30.414Z,39.93
2018-12-14T01:03:56.565Z,42.07
2018-12-14T01:06:22.767Z,47.90
2018-12-14T01:08:48.904Z,52.57
2018-12-14T01:11:15.223Z,42.60
2018-12-14T01:13:41.421Z,47.90
2018-12-14T01:16:07.595Z,47.60
2018-12-14T01:18:33.858Z,42.13
2018-12-14T01:21:00.037Z,42.93
2018-12-14T01:23:26.173Z,41.10
2018-12-14T01:25:52.328Z,36.57
2018-12-14T01:28:18.497Z,28.97
2018-12-14T01:30:44.661Z,43.10
2018-12-14T01:33:10.817Z,38.97
2018-12-14T01:35:37.006Z,44.20
2018-12-14T01:38:03.169Z,41.30
2018-12-14T01:40:29.322Z,33.37
2018-12-14T01:42:55.482Z,33.63
2018-12-14T01:45:21.633Z,33.07
2018-12-14T01:47:47.774Z,26.77
2018-12-14T01:50:13.949Z,30.67
2018-12-14T01:52:40.333Z,30.53
2018-12-14T01:55:06.747Z,26.93
2018-12-14T01:57:32.960Z,26.17
2018-12-14T01:59:59.103Z,26.23
2018-12-14T02:02:25.248Z,27.83
2018-12-14T02:04:51.401Z,31.10
2018-12-14T02:07:17.525Z,26.67
2018-12-14T02:09:43.673Z,28.43
2018-12-14T02:12:11.512Z,27.93
2018-12-14T02:14:38.017Z,27.93
2018-12-14T02:17:04.176Z,29.00
2018-12-14T02:19:30.337Z,31.53
2018-12-14T02:21:56.461Z,25.90
2018-12-14T02:24:22.618Z,29.73
2018-12-14T02:26:48.793Z,25.83
2018-12-14T02:29:14.954Z,31.80
2018-12-14T02:31:41.107Z,25.03
2018-12-14T02:34:07.261Z,26.23
2018-12-14T02:36:33.422Z,30.00
2018-12-14T02:38:59.566Z,33.67
2018-12-14T02:41:25.751Z,43.70
2018-12-14T02:43:52.128Z,50.10
2018-12-14T02:46:18.261Z,34.53
2018-12-14T02:48:44.421Z,28.30
2018-12-14T02:51:10.608Z,25.33
2018-12-14T02:53:36.834Z,34.63
2018-12-14T02:56:03.002Z,36.37
2018-12-14T02:58:29.138Z,34.63
2018-12-14T03:00:55.284Z,34.47
2018-12-14T03:03:21.458Z,28.67
2018-12-14T03:05:47.608Z,31.83
2018-12-14T03:08:13.774Z,28.47
2018-12-14T03:10:39.982Z,23.43
2018-12-14T03:13:06.242Z,24.57
2018-12-14T03:15:32.382Z,29.57
2018-12-14T03:17:58.547Z,20.63
2018-12-14T03:20:24.725Z,35.90
2018-12-14T03:22:50.851Z,21.33
2018-12-14T03:25:17.010Z,19.97
2018-12-14T03:27:43.164Z,23.03
2018-12-14T03:30:09.492Z,21.50
2018-12-14T03:32:35.805Z,22.63
2018-12-14T03:35:03.123Z,22.27
2018-12-14T03:37:29.250Z,22.77
2018-12-14T03:39:55.425Z,20.83
2018-12-14T03:42:21.581Z,15.17
2018-12-14T03:44:47.730Z,22.00
2018-12-14T03:47:13.893Z,20.10
2018-12-14T03:49:40.024Z,19.57
2018-12-14T03:52:06.162Z,25.13
2018-12-14T03:54:32.328Z,29.13
2018-12-14T03:56:58.447Z,26.33
2018-12-14T03:59:24.589Z,22.67
2018-12-14T04:01:50.754Z,32.27
2018-12-14T04:04:16.897Z,21.17
2018-12-14T04:06:43.055Z,26.30
2018-12-14T04:09:09.237Z,41.13
2018-12-14T04:11:35.361Z,33.27
2018-12-14T04:14:01.532Z,38.40
2018-12-14T04:16:27.693Z,46.70
2018-12-14T04:18:53.833Z,41.37
2018-12-14T04:21:19.980Z,35.40
2018-12-14T04:23:46.163Z,42.93
2018-12-14T04:26:12.312Z,39.57
2018-12-14T04:28:38.438Z,49.70
2018-12-14T04:31:04.663Z,54.33
2018-12-14T04:33:31.146Z,55.83
2018-12-14T04:35:57.524Z,51.87
2018-12-14T04:38:23.717Z,54.33
2018-12-14T04:40:49.880Z,44.83
2018-12-14T04:43:16.019Z,49.03
2018-12-14T04:45:42.210Z,41.33
2018-12-14T04:48:08.392Z,43.03
2018-12-14T04:50:34.529Z,49.43
2018-12-14T04:53:00.710Z,54.33
2018-12-14T04:55:26.853Z,77.80
2018-12-14T04:57:53.010Z,67.47
2018-12-14T05:00:19.197Z,57.57
2018-12-14T05:02:45.412Z,59.73
2018-12-14T05:05:11.644Z,58.57
2018-12-14T05:07:37.835Z,89.10
2018-12-14T05:10:04.738Z,502.27
2018-12-14T05:12:30.878Z,267.20
2018-12-14T05:14:57.082Z,178.93
2018-12-14T05:17:23.361Z,183.13
2018-12-14T05:19:49.508Z,165.87
2018-12-14T05:22:15.696Z,145.10
2018-12-14T05:24:41.862Z,124.30
2018-12-14T05:27:08.442Z,105.07
2018-12-14T05:29:34.630Z,98.03
2018-12-14T05:32:00.782Z,98.83
2018-12-14T05:34:26.928Z,111.20
2018-12-14T05:36:53.113Z,110.07
2018-12-14T05:39:19.245Z,193.53
2018-12-14T05:41:45.384Z,93.80
2018-12-14T05:44:11.580Z,88.30
2018-12-14T05:46:37.825Z,83.20
2018-12-14T05:49:03.944Z,65.57
2018-12-14T05:51:30.090Z,61.20
2018-12-14T05:53:56.231Z,62.67
2018-12-14T05:56:22.917Z,72.90
2018-12-14T05:58:49.112Z,59.27
2018-12-14T06:01:15.263Z,108.27
2018-12-14T06:03:41.407Z,83.43
2018-12-14T06:06:07.589Z,93.60
2018-12-14T06:08:33.709Z,73.07
2018-12-14T06:10:59.862Z,83.57
2018-12-14T06:13:26.026Z,82.93
2018-12-14T06:15:52.167Z,106.80
2018-12-14T06:18:18.342Z,161.83
2018-12-14T06:20:44.508Z,112.47
2018-12-14T06:23:10.676Z,114.47
2018-12-14T06:25:36.834Z,94.67
2018-12-14T06:28:03.022Z,90.70
2018-12-14T06:30:29.172Z,103.00
2018-12-14T06:32:55.293Z,171.53
2018-12-14T06:35:21.489Z,100.47
2018-12-14T06:37:47.628Z,97.40
2018-12-14T06:40:13.772Z,82.60
2018-12-14T06:42:39.937Z,90.53
2018-12-14T06:45:07.080Z,88.33
2018-12-14T06:47:33.255Z,128.87
2018-12-14T06:49:59.438Z,97.80
2018-12-14T06:52:25.597Z,110.13
2018-12-14T06:54:51.746Z,109.27
2018-12-14T06:57:17.916Z,99.23
2018-12-14T06:59:44.126Z,102.40
2018-12-14T07:02:10.372Z,96.67
2018-12-14T07:04:36.545Z,99.13
2018-12-14T07:07:04.227Z,88.60
2018-12-14T07:09:30.741Z,105.37
2018-12-14T07:11:56.928Z,83.93
2018-12-14T07:14:23.063Z,77.80
2018-12-14T07:16:49.201Z,84.97
2018-12-14T07:19:15.389Z,89.27
2018-12-14T07:21:41.519Z,83.33
2018-12-14T07:24:07.917Z,93.53
2018-12-14T07:26:34.640Z,94.10
2018-12-14T07:29:01.269Z,102.93
2018-12-14T07:31:27.549Z,97.70
2018-12-14T07:33:53.717Z,91.20
2018-12-14T07:36:19.933Z,72.93
2018-12-14T07:38:48.215Z,44.40
2018-12-14T07:41:14.385Z,49.33
2018-12-14T07:43:40.541Z,46.00
2018-12-14T07:46:06.677Z,39.67
2018-12-14T07:48:32.853Z,52.63
2018-12-14T07:50:59.000Z,62.53
2018-12-14T07:53:25.281Z,57.27
2018-12-14T07:55:51.457Z,64.83
2018-12-14T07:58:17.612Z,45.20
2018-12-14T08:00:43.776Z,54.20
2018-12-14T08:03:10.000Z,40.17
2018-12-14T08:05:36.137Z,36.87
2018-12-14T08:08:02.267Z,37.13
2018-12-14T08:10:28.448Z,35.43
2018-12-14T08:12:54.921Z,37.93
2018-12-14T08:15:21.242Z,42.37
2018-12-14T08:17:47.409Z,38.60
2018-12-14T08:20:17.150Z,41.77
2018-12-14T08:22:41.722Z,52.90
2018-12-14T08:25:07.950Z,42.30
2018-12-14T08:27:34.102Z,39.30
2018-12-14T08:30:00.285Z,38.73
2018-12-14T08:32:26.489Z,46.27
2018-12-14T08:34:52.657Z,40.47
2018-12-14T08:37:18.793Z,31.97
2018-12-14T08:39:44.945Z,41.23
2018-12-14T08:42:11.068Z,34.93
2018-12-14T08:44:37.229Z,29.13
2018-12-14T08:47:03.405Z,31.37
2018-12-14T08:49:29.563Z,36.97
2018-12-14T08:51:55.704Z,39.13
2018-12-14T08:54:21.886Z,37.03
2018-12-14T08:56:48.025Z,30.77
2018-12-14T08:59:14.153Z,29.47
2018-12-14T09:01:40.338Z,37.47
2018-12-14T09:04:06.497Z,32.90
2018-12-14T09:06:32.651Z,26.90
2018-12-14T09:08:58.829Z,27.53
2018-12-14T09:11:24.993Z,26.70
2018-12-14T09:13:51.135Z,32.90
2018-12-14T09:16:17.313Z,50.60
2018-12-14T09:18:43.449Z,60.00
2018-12-14T09:21:09.616Z,54.50
2018-12-14T09:23:35.809Z,79.03
2018-12-14T09:26:02.085Z,61.30
2018-12-14T09:28:28.207Z,56.30
2018-12-14T09:30:54.359Z,50.83
2018-12-14T09:33:20.510Z,51.63
2018-12-14T09:35:46.647Z,46.47
2018-12-14T09:38:12.838Z,66.10
2018-12-14T09:40:38.982Z,60.97
2018-12-14T09:43:05.185Z,58.70
2018-12-14T09:45:31.407Z,68.37
2018-12-14T09:47:57.586Z,51.83
2018-12-14T09:50:23.725Z,53.80
2018-12-14T09:52:49.873Z,62.40
2018-12-14T09:55:15.997Z,53.77
2018-12-14T09:57:42.165Z,42.83
2018-12-14T10:00:08.665Z,28.33
2018-12-14T10:02:34.798Z,33.43
2018-12-14T10:05:00.934Z,35.97
2018-12-14T10:07:27.118Z,31.60
2018-12-14T10:09:53.274Z,31.20
2018-12-14T10:12:26.453Z,38.93
2018-12-14T10:14:52.613Z,39.20
2018-12-14T10:17:18.777Z,39.25
2018-12-14T10:19:44.909Z,22.73
2018-12-14T10:22:11.070Z,26.17
2018-12-14T10:24:37.197Z,23.57
2018-12-14T10:27:03.346Z,29.87
2018-12-14T10:29:29.517Z,20.57
2018-12-14T10:31:55.656Z,31.73
2018-12-14T10:34:21.784Z,20.80
2018-12-14T10:36:47.987Z,19.70
2018-12-14T10:39:14.149Z,25.20
2018-12-14T10:41:40.320Z,29.90
2018-12-14T10:44:07.497Z,25.87
2018-12-14T10:46:34.193Z,24.00
2018-12-14T10:49:00.377Z,20.33
2018-12-14T10:51:26.623Z,18.70
2018-12-14T10:53:52.773Z,17.97
2018-12-14T10:56:18.937Z,20.57
2018-12-14T10:58:45.112Z,20.08
2018-12-14T11:01:17.285Z,26.03
2018-12-14T11:03:43.408Z,23.67
2018-12-14T11:06:09.579Z,19.10
2018-12-14T11:08:35.714Z,16.07
2018-12-14T11:11:01.860Z,16.80
2018-12-14T11:13:28.031Z,23.83
2018-12-14T11:15:54.197Z,25.17
2018-12-14T11:18:20.333Z,24.17
2018-12-14T11:20:46.655Z,25.70
2018-12-14T11:23:16.882Z,32.40
2018-12-14T11:25:43.044Z,32.93
2018-12-14T11:28:09.225Z,33.10
2018-12-14T11:30:35.380Z,28.43
2018-12-14T11:33:01.538Z,28.50
2018-12-14T11:35:27.847Z,27.83
2018-12-14T11:37:54.075Z,24.50
2018-12-14T11:40:20.303Z,25.50
2018-12-14T11:42:46.736Z,27.80
2018-12-14T11:45:12.901Z,33.00
2018-12-14T11:47:45.841Z,36.60
2018-12-14T11:50:12.012Z,23.87
2018-12-14T11:52:38.137Z,21.07
2018-12-14T11:55:06.072Z,24.93
2018-12-14T11:57:32.205Z,31.50
2018-12-14T11:59:58.324Z,34.63
2018-12-14T12:02:24.509Z,29.93
2018-12-14T12:04:50.663Z,26.17
2018-12-14T12:07:16.789Z,32.03
2018-12-14T12:09:42.954Z,32.47
2018-12-14T12:12:09.085Z,32.90
2018-12-14T12:14:35.222Z,33.33
2018-12-14T12:17:01.392Z,36.57
2018-12-14T12:19:27.573Z,22.07
2018-12-14T12:21:53.766Z,34.60
2018-12-14T12:24:19.926Z,64.80
2018-12-14T12:26:46.065Z,34.03
2018-12-14T12:29:12.212Z,54.57
2018-12-14T12:31:38.388Z,45.27
2018-12-14T12:34:04.513Z,33.53
2018-12-14T12:36:30.677Z,45.70
2018-12-14T12:38:56.856Z,24.67
2018-12-14T12:41:23.001Z,31.23
2018-12-14T12:43:49.157Z,52.77
2018-12-14T12:46:15.416Z,50.43
2018-12-14T12:48:41.843Z,37.87
2018-12-14T12:51:07.987Z,57.50
2018-12-14T12:53:34.161Z,53.13
2018-12-14T12:56:00.313Z,46.00
2018-12-14T12:58:26.458Z,45.27
2018-12-14T13:00:52.701Z,33.00
2018-12-14T13:03:19.011Z,33.27
2018-12-14T13:05:45.255Z,35.37
2018-12-14T13:08:11.441Z,25.57
2018-12-14T13:10:37.587Z,21.17
2018-12-14T13:13:03.854Z,24.43
2018-12-14T13:15:30.029Z,22.30
2018-12-14T13:17:56.173Z,22.00
2018-12-14T13:20:22.314Z,30.37
2018-12-14T13:22:48.533Z,28.50
2018-12-14T13:25:14.713Z,28.83
2018-12-14T13:27:40.845Z,22.30
2018-12-14T13:30:07.179Z,23.27
2018-12-14T13:32:33.309Z,17.00
2018-12-14T13:34:59.460Z,22.30
2018-12-14T13:37:25.622Z,33.40
2018-12-14T13:39:51.764Z,28.93
2018-12-14T13:42:17.915Z,30.17
2018-12-14T13:44:46.676Z,35.30
2018-12-14T13:47:12.429Z,29.07
2018-12-14T13:49:38.576Z,32.80
2018-12-14T13:52:04.752Z,37.53
2018-12-14T13:54:30.905Z,28.10
2018-12-14T13:56:57.060Z,33.47
2018-12-14T13:59:23.349Z,40.80
2018-12-14T14:01:49.517Z,28.73
2018-12-14T14:04:22.453Z,29.27
2018-12-14T14:06:48.629Z,34.20
2018-12-14T14:09:14.785Z,34.53
2018-12-14T14:11:40.930Z,33.20
2018-12-14T14:14:07.117Z,49.40
2018-12-14T14:16:33.261Z,44.97
2018-12-14T14:18:59.400Z,39.40
2018-12-14T14:21:25.570Z,41.13
2018-12-14T14:23:51.751Z,31.17
2018-12-14T14:26:17.881Z,34.63
2018-12-14T14:28:44.960Z,53.60
2018-12-14T14:31:11.209Z,51.43
2018-12-14T14:33:37.361Z,55.90
2018-12-14T14:36:03.537Z,68.70
2018-12-14T14:38:29.698Z,67.33
2018-12-14T14:40:55.841Z,58.07
2018-12-14T14:43:22.056Z,62.13
2018-12-14T14:45:48.201Z,66.97
2018-12-14T14:48:14.340Z,53.50
2018-12-14T14:50:40.503Z,58.77
2018-12-14T14:53:06.712Z,72.37
2018-12-14T14:55:32.833Z,59.57
2018-12-14T14:57:59.001Z,63.30
2018-12-14T15:00:32.497Z,60.97
2018-12-14T15:02:58.893Z,76.30
2018-12-14T15:05:25.047Z,123.23
2018-12-14T15:07:51.189Z,84.50
2018-12-14T15:10:17.397Z,94.05
2018-12-14T15:12:43.554Z,79.20
2018-12-14T15:15:09.763Z,79.30
2018-12-14T15:17:35.945Z,78.63
2018-12-14T15:20:02.242Z,84.13
2018-12-14T15:22:28.385Z,125.27
2018-12-14T15:24:54.905Z,135.73
2018-12-14T15:27:21.053Z,137.17
2018-12-14T15:29:47.220Z,118.87
2018-12-14T15:32:13.777Z,165.63
2018-12-14T15:34:39.920Z,158.90
2018-12-14T15:37:06.150Z,184.37
2018-12-14T15:39:32.358Z,195.03
2018-12-14T15:41:58.488Z,189.60
2018-12-14T15:44:24.612Z,169.57
2018-12-14T15:46:50.805Z,174.77
2018-12-14T15:49:16.961Z,189.97
2018-12-14T15:51:43.112Z,185.83
2018-12-14T15:54:09.327Z,159.57
2018-12-14T15:56:35.474Z,146.57
2018-12-14T15:59:01.622Z,135.13
2018-12-14T16:01:27.827Z,130.93
2018-12-14T16:03:53.975Z,152.27
2018-12-14T16:06:20.126Z,76.93
2018-12-14T16:08:46.323Z,91.80
2018-12-14T16:11:12.806Z,109.13
2018-12-14T16:13:38.971Z,93.90
2018-12-14T16:16:05.205Z,141.63
2018-12-14T16:18:31.493Z,166.53
2018-12-14T16:20:57.771Z,265.83
2018-12-14T16:23:24.099Z,173.73
2018-12-14T16:25:50.255Z,234.67
2018-12-14T16:28:17.280Z,193.63
2018-12-14T16:30:43.457Z,192.67
2018-12-14T16:33:09.715Z,216.87
2018-12-14T16:35:35.879Z,230.73
2018-12-14T16:38:02.078Z,223.97
2018-12-14T16:40:28.234Z,219.73
2018-12-14T16:42:54.378Z,206.10
2018-12-14T16:45:26.270Z,235.43
2018-12-14T16:47:48.717Z,175.30
2018-12-14T16:50:14.849Z,191.13
2018-12-14T16:52:41.019Z,126.07
2018-12-14T16:55:07.352Z,170.83
2018-12-14T16:57:33.540Z,149.67
2018-12-14T16:59:59.713Z,147.37
2018-12-14T17:02:25.994Z,166.97
2018-12-14T17:04:52.141Z,161.10
2018-12-14T17:07:18.383Z,180.57
2018-12-14T17:09:44.532Z,187.33
2018-12-14T17:12:10.723Z,174.00
2018-12-14T17:14:37.064Z,167.03
2018-12-14T17:17:03.258Z,183.60
2018-12-14T17:19:29.485Z,196.57
2018-12-14T17:21:55.669Z,181.47
2018-12-14T17:24:21.812Z,190.30
2018-12-14T17:26:48.060Z,261.07
2018-12-14T17:29:14.239Z,262.80
2018-12-14T17:31:40.397Z,254.90
2018-12-14T17:34:13.548Z,263.70
2018-12-14T17:36:39.841Z,212.13
2018-12-14T17:39:06.273Z,139.90
2018-12-14T17:41:32.521Z,133.97
2018-12-14T17:43:58.716Z,154.67
2018-12-14T17:46:24.870Z,155.13
2018-12-14T17:48:51.011Z,468.03
2018-12-14T17:51:17.205Z,347.97
2018-12-14T17:53:43.359Z,184.23
2018-12-14T17:56:09.557Z,716.43
2018-12-14T17:58:35.925Z,790.43
2018-12-14T18:01:02.151Z,283.10
2018-12-14T18:03:28.324Z,869.07
2018-12-14T18:05:54.499Z,212.93
2018-12-14T18:08:20.644Z,528.13
2018-12-14T18:10:47.029Z,567.50
2018-12-14T18:13:13.357Z,227.00
2018-12-14T18:15:46.168Z,186.33
2018-12-14T18:18:07.966Z,211.57
2018-12-14T18:20:34.157Z,326.50
2018-12-14T18:23:00.421Z,367.53
2018-12-14T18:25:26.584Z,173.23
2018-12-14T18:27:52.777Z,94.87
2018-12-14T18:30:18.936Z,82.13
2018-12-14T18:32:45.077Z,109.73
2018-12-14T18:35:11.371Z,100.53
2018-12-14T18:37:37.520Z,90.43
2018-12-14T18:40:05.613Z,74.40
2018-12-14T18:42:31.881Z,74.33
2018-12-14T18:44:58.120Z,90.63
2018-12-14T18:47:24.370Z,86.93
2018-12-14T18:49:50.582Z,89.20
2018-12-14T18:52:16.713Z,99.43
2018-12-14T18:54:42.872Z,100.70
2018-12-14T18:57:09.077Z,68.93
2018-12-14T18:59:35.480Z,87.23
2018-12-14T19:02:01.633Z,101.00
2018-12-14T19:04:27.788Z,86.47
2018-12-14T19:06:54.593Z,81.80
2018-12-14T19:09:20.740Z,95.93
2018-12-14T19:11:47.026Z,99.43
2018-12-14T19:14:13.285Z,154.93
2018-12-14T19:16:39.513Z,83.97
2018-12-14T19:19:05.676Z,96.53
2018-12-14T19:21:31.933Z,126.77
2018-12-14T19:23:58.197Z,195.33
2018-12-14T19:26:24.406Z,148.90
2018-12-14T19:28:51.867Z,130.07
2018-12-14T19:31:18.092Z,129.83
2018-12-14T19:33:44.308Z,127.37
2018-12-14T19:36:10.454Z,173.97
2018-12-14T19:38:36.633Z,152.70
2018-12-14T19:41:03.004Z,143.43
2018-12-14T19:43:29.130Z,153.13
2018-12-14T19:45:55.476Z,163.30
2018-12-14T19:48:21.653Z,155.87
2018-12-14T19:50:47.916Z,157.23
2018-12-14T19:53:14.045Z,186.80
2018-12-14T19:55:40.357Z,171.43
2018-12-14T19:58:06.581Z,186.20
2018-12-14T20:00:32.809Z,182.47
2018-12-14T20:02:59.275Z,193.87
2018-12-14T20:05:25.503Z,194.83
2018-12-14T20:07:51.658Z,166.10
2018-12-14T20:10:17.958Z,149.43
2018-12-14T20:12:44.153Z,155.37
2018-12-14T20:15:10.281Z,170.70
2018-12-14T20:17:36.609Z,208.30
2018-12-14T20:20:04.195Z,188.83
2018-12-14T20:22:30.333Z,152.83
2018-12-14T20:24:56.725Z,176.27
2018-12-14T20:27:22.952Z,170.47
2018-12-14T20:29:49.237Z,144.30
2018-12-14T20:32:15.613Z,154.27
2018-12-14T20:34:41.874Z,148.33
2018-12-14T20:37:08.015Z,133.17
2018-12-14T20:39:34.168Z,132.43
2018-12-14T20:42:00.353Z,146.73
2018-12-14T20:44:26.493Z,162.47
2018-12-14T20:46:52.777Z,171.73
2018-12-14T20:49:18.932Z,163.33
2018-12-14T20:51:45.234Z,165.00
2018-12-14T20:54:11.474Z,153.77
2018-12-14T20:56:37.624Z,158.33
2018-12-14T20:59:03.947Z,146.23
2018-12-14T21:01:30.142Z,143.13
2018-12-14T21:03:56.404Z,128.40
2018-12-14T21:06:22.599Z,175.77
2018-12-14T21:08:48.809Z,151.83
2018-12-14T21:11:14.942Z,152.40
2018-12-14T21:13:41.069Z,158.23
2018-12-14T21:16:07.234Z,135.93
2018-12-14T21:18:33.534Z,125.10
2018-12-14T21:20:59.677Z,125.07
2018-12-14T21:23:25.840Z,137.80
2018-12-14T21:25:52.043Z,115.93
2018-12-14T21:28:18.173Z,104.37
2018-12-14T21:30:44.360Z,93.37
2018-12-14T21:33:10.506Z,93.00
2018-12-14T21:35:36.637Z,79.43
2018-12-14T21:38:02.814Z,96.33
2018-12-14T21:40:29.000Z,103.37
2018-12-14T21:42:55.207Z,97.10
2018-12-14T21:45:21.456Z,88.93
2018-12-14T21:47:47.605Z,91.17
2018-12-14T21:50:13.873Z,113.60
2018-12-14T21:52:40.140Z,118.43
2018-12-14T21:55:06.421Z,115.20
2018-12-14T21:57:32.783Z,89.87
2018-12-14T21:59:58.949Z,90.57
2018-12-14T22:02:25.114Z,90.50
2018-12-14T22:04:51.447Z,82.80
2018-12-14T22:07:17.629Z,70.93
2018-12-14T22:09:43.941Z,83.17
2018-12-14T22:12:10.167Z,89.27
2018-12-14T22:14:36.320Z,66.70
2018-12-14T22:17:02.797Z,81.03
2018-12-14T22:19:28.936Z,71.73
2018-12-14T22:21:55.109Z,76.43
2018-12-14T22:24:21.257Z,90.27
2018-12-14T22:26:47.500Z,96.60
2018-12-14T22:29:13.744Z,77.50
2018-12-14T22:31:39.881Z,78.70
2018-12-14T22:34:06.200Z,72.60
2018-12-14T22:36:39.581Z,70.37
2018-12-14T22:39:06.217Z,67.33
2018-12-14T22:41:32.445Z,85.70
2018-12-14T22:43:58.672Z,85.40
2018-12-14T22:46:24.805Z,69.97
2018-12-14T22:48:51.131Z,74.17
2018-12-14T22:51:17.323Z,72.40
2018-12-14T22:53:43.473Z,67.13
2018-12-14T22:56:16.485Z,72.83
2018-12-14T22:58:42.797Z,67.83
2018-12-14T23:01:09.025Z,77.33
2018-12-14T23:03:35.172Z,78.10
2018-12-14T23:06:01.481Z,68.77
2018-12-14T23:08:27.634Z,67.40
2018-12-14T23:10:53.972Z,64.47
2018-12-14T23:13:20.148Z,66.53
2018-12-14T23:15:46.393Z,60.10
2018-12-14T23:18:12.657Z,57.63
2018-12-14T23:20:38.835Z,70.83
2018-12-14T23:23:05.077Z,67.40
2018-12-14T23:25:31.232Z,60.90
2018-12-14T23:27:57.529Z,64.17
2018-12-14T23:30:30.568Z,165.33
2018-12-14T23:32:56.694Z,59.33
2018-12-14T23:35:22.973Z,140.60
2018-12-14T23:37:49.128Z,82.37
2018-12-14T23:40:15.282Z,67.20
2018-12-14T23:42:41.470Z,58.47
2018-12-14T23:45:07.685Z,53.83
2018-12-14T23:47:33.940Z,48.23
2018-12-14T23:50:00.106Z,66.47
2018-12-14T23:52:26.397Z,80.30
2018-12-14T23:54:52.627Z,93.60
2018-12-14T23:57:18.801Z,104.37
2018-12-14T23:59:45.082Z,117.00
